sensor_id;sensor_type;location;lat;lon;timestamp;P1;durP1;ratioP1;P2;durP2;ratioP2
54384;SDS011;40284;52.878;5.998;2023-07-13T00:02:24;16.42;;;5.18;;
54384;SDS011;40284;52.878;5.998;2023-07-13T00:04:52;22.50;;;5.65;;
54384;SDS011;40284;52.878;5.998;2023-07-13T00:07:18;21.15;;;5.40;;
54384;SDS011;40284;52.878;5.998;2023-07-13T00:09:47;19.83;;;5.13;;
54384;SDS011;40284;52.878;5.998;2023-07-13T00:12:27;26.65;;;5.32;;
54384;SDS011;40284;52.878;5.998;2023-07-13T00:14:55;17.88;;;4.28;;
54384;SDS011;40284;52.878;5.998;2023-07-13T00:17:21;17.23;;;4.60;;
54384;SDS011;40284;52.878;5.998;2023-07-13T00:19:47;16.85;;;4.30;;
54384;SDS011;40284;52.878;5.998;2023-07-13T00:22:13;22.35;;;5.03;;
54384;SDS011;40284;52.878;5.998;2023-07-13T00:24:39;17.50;;;4.75;;
54384;SDS011;40284;52.878;5.998;2023-07-13T00:27:07;21.88;;;4.60;;
54384;SDS011;40284;52.878;5.998;2023-07-13T00:29:34;17.02;;;4.53;;
54384;SDS011;40284;52.878;5.998;2023-07-13T00:32:01;20.38;;;4.97;;
54384;SDS011;40284;52.878;5.998;2023-07-13T00:34:27;18.52;;;3.80;;
54384;SDS011;40284;52.878;5.998;2023-07-13T00:36:53;15.20;;;4.32;;
54384;SDS011;40284;52.878;5.998;2023-07-13T00:39:19;16.83;;;4.68;;
54384;SDS011;40284;52.878;5.998;2023-07-13T00:41:46;22.58;;;4.75;;
54384;SDS011;40284;52.878;5.998;2023-07-13T00:44:15;21.60;;;4.63;;
54384;SDS011;40284;52.878;5.998;2023-07-13T00:46:42;16.90;;;5.68;;
54384;SDS011;40284;52.878;5.998;2023-07-13T00:49:09;20.60;;;4.63;;
54384;SDS011;40284;52.878;5.998;2023-07-13T00:51:37;14.75;;;4.68;;
54384;SDS011;40284;52.878;5.998;2023-07-13T00:54:04;16.17;;;4.60;;
54384;SDS011;40284;52.878;5.998;2023-07-13T00:56:31;17.33;;;5.10;;
54384;SDS011;40284;52.878;5.998;2023-07-13T00:58:58;16.63;;;4.72;;
54384;SDS011;40284;52.878;5.998;2023-07-13T01:01:25;18.73;;;4.28;;
54384;SDS011;40284;52.878;5.998;2023-07-13T01:03:51;16.15;;;4.72;;
54384;SDS011;40284;52.878;5.998;2023-07-13T01:06:19;20.10;;;5.88;;
54384;SDS011;40284;52.878;5.998;2023-07-13T01:08:45;13.40;;;4.43;;
54384;SDS011;40284;52.878;5.998;2023-07-13T01:11:11;15.40;;;4.75;;
54384;SDS011;40284;52.878;5.998;2023-07-13T01:13:37;15.35;;;4.85;;
54384;SDS011;40284;52.878;5.998;2023-07-13T01:16:05;17.13;;;4.80;;
54384;SDS011;40284;52.878;5.998;2023-07-13T01:18:37;12.70;;;4.57;;
54384;SDS011;40284;52.878;5.998;2023-07-13T01:21:04;20.08;;;6.57;;
54384;SDS011;40284;52.878;5.998;2023-07-13T01:23:31;17.55;;;5.45;;
54384;SDS011;40284;52.878;5.998;2023-07-13T01:25:57;19.45;;;7.40;;
54384;SDS011;40284;52.878;5.998;2023-07-13T01:28:24;13.20;;;4.43;;
54384;SDS011;40284;52.878;5.998;2023-07-13T01:30:52;18.13;;;6.75;;
54384;SDS011;40284;52.878;5.998;2023-07-13T01:33:19;17.58;;;5.63;;
54384;SDS011;40284;52.878;5.998;2023-07-13T01:35:45;17.88;;;5.82;;
54384;SDS011;40284;52.878;5.998;2023-07-13T01:38:13;9.18;;;3.15;;
54384;SDS011;40284;52.878;5.998;2023-07-13T01:40:40;16.77;;;4.30;;
54384;SDS011;40284;52.878;5.998;2023-07-13T01:43:06;12.15;;;3.25;;
54384;SDS011;40284;52.878;5.998;2023-07-13T01:45:32;11.70;;;3.50;;
54384;SDS011;40284;52.878;5.998;2023-07-13T01:47:58;9.68;;;3.83;;
54384;SDS011;40284;52.878;5.998;2023-07-13T01:50:24;12.82;;;4.38;;
54384;SDS011;40284;52.878;5.998;2023-07-13T01:52:51;10.57;;;3.80;;
54384;SDS011;40284;52.878;5.998;2023-07-13T01:55:17;13.82;;;3.95;;
54384;SDS011;40284;52.878;5.998;2023-07-13T01:57:43;14.27;;;3.85;;
54384;SDS011;40284;52.878;5.998;2023-07-13T02:00:09;13.13;;;4.22;;
54384;SDS011;40284;52.878;5.998;2023-07-13T02:02:36;14.13;;;4.63;;
54384;SDS011;40284;52.878;5.998;2023-07-13T02:05:02;11.38;;;4.78;;
54384;SDS011;40284;52.878;5.998;2023-07-13T02:07:28;12.57;;;4.63;;
54384;SDS011;40284;52.878;5.998;2023-07-13T02:09:54;12.30;;;3.78;;
54384;SDS011;40284;52.878;5.998;2023-07-13T02:12:20;12.07;;;3.33;;
54384;SDS011;40284;52.878;5.998;2023-07-13T02:14:46;14.80;;;3.58;;
54384;SDS011;40284;52.878;5.998;2023-07-13T02:17:12;20.55;;;4.50;;
54384;SDS011;40284;52.878;5.998;2023-07-13T02:19:38;12.73;;;3.85;;
54384;SDS011;40284;52.878;5.998;2023-07-13T02:22:05;16.48;;;4.15;;
54384;SDS011;40284;52.878;5.998;2023-07-13T02:24:31;13.85;;;3.83;;
54384;SDS011;40284;52.878;5.998;2023-07-13T02:26:57;12.75;;;3.70;;
54384;SDS011;40284;52.878;5.998;2023-07-13T02:29:24;16.55;;;3.80;;
54384;SDS011;40284;52.878;5.998;2023-07-13T02:31:50;13.55;;;3.88;;
54384;SDS011;40284;52.878;5.998;2023-07-13T02:34:16;12.18;;;3.90;;
54384;SDS011;40284;52.878;5.998;2023-07-13T02:36:42;13.88;;;4.20;;
54384;SDS011;40284;52.878;5.998;2023-07-13T02:39:08;11.73;;;3.58;;
54384;SDS011;40284;52.878;5.998;2023-07-13T02:41:34;17.60;;;4.57;;
54384;SDS011;40284;52.878;5.998;2023-07-13T02:44:01;17.75;;;4.25;;
54384;SDS011;40284;52.878;5.998;2023-07-13T02:46:31;15.55;;;4.43;;
54384;SDS011;40284;52.878;5.998;2023-07-13T02:48:57;13.00;;;3.58;;
54384;SDS011;40284;52.878;5.998;2023-07-13T02:51:23;15.27;;;4.00;;
54384;SDS011;40284;52.878;5.998;2023-07-13T02:53:50;12.45;;;4.00;;
54384;SDS011;40284;52.878;5.998;2023-07-13T02:56:16;18.38;;;4.22;;
54384;SDS011;40284;52.878;5.998;2023-07-13T02:58:42;8.52;;;4.22;;
54384;SDS011;40284;52.878;5.998;2023-07-13T03:01:08;18.33;;;4.60;;
54384;SDS011;40284;52.878;5.998;2023-07-13T03:03:35;15.77;;;5.47;;
54384;SDS011;40284;52.878;5.998;2023-07-13T03:06:02;16.90;;;4.13;;
54384;SDS011;40284;52.878;5.998;2023-07-13T03:08:30;16.40;;;4.78;;
54384;SDS011;40284;52.878;5.998;2023-07-13T03:11:06;16.17;;;4.93;;
54384;SDS011;40284;52.878;5.998;2023-07-13T03:13:33;13.50;;;4.53;;
54384;SDS011;40284;52.878;5.998;2023-07-13T03:15:59;19.33;;;4.20;;
54384;SDS011;40284;52.878;5.998;2023-07-13T03:18:26;23.45;;;4.80;;
54384;SDS011;40284;52.878;5.998;2023-07-13T03:20:52;13.00;;;4.15;;
54384;SDS011;40284;52.878;5.998;2023-07-13T03:23:19;17.65;;;4.28;;
54384;SDS011;40284;52.878;5.998;2023-07-13T03:25:45;14.77;;;4.47;;
54384;SDS011;40284;52.878;5.998;2023-07-13T03:28:12;12.80;;;4.15;;
54384;SDS011;40284;52.878;5.998;2023-07-13T03:30:38;13.60;;;4.28;;
54384;SDS011;40284;52.878;5.998;2023-07-13T03:33:04;16.30;;;4.82;;
54384;SDS011;40284;52.878;5.998;2023-07-13T03:35:30;11.80;;;4.22;;
54384;SDS011;40284;52.878;5.998;2023-07-13T03:37:57;10.15;;;3.95;;
54384;SDS011;40284;52.878;5.998;2023-07-13T03:40:24;17.95;;;4.80;;
54384;SDS011;40284;52.878;5.998;2023-07-13T03:42:51;13.95;;;4.65;;
54384;SDS011;40284;52.878;5.998;2023-07-13T03:45:17;15.15;;;4.65;;
54384;SDS011;40284;52.878;5.998;2023-07-13T03:47:44;13.27;;;4.00;;
54384;SDS011;40284;52.878;5.998;2023-07-13T03:50:10;14.68;;;4.30;;
54384;SDS011;40284;52.878;5.998;2023-07-13T03:52:36;11.93;;;4.10;;
54384;SDS011;40284;52.878;5.998;2023-07-13T03:55:02;14.48;;;4.70;;
54384;SDS011;40284;52.878;5.998;2023-07-13T03:57:28;14.68;;;5.65;;
54384;SDS011;40284;52.878;5.998;2023-07-13T03:59:54;13.32;;;3.70;;
54384;SDS011;40284;52.878;5.998;2023-07-13T04:02:20;9.90;;;3.17;;
54384;SDS011;40284;52.878;5.998;2023-07-13T04:04:46;9.18;;;3.45;;
54384;SDS011;40284;52.878;5.998;2023-07-13T04:07:13;10.25;;;3.45;;
54384;SDS011;40284;52.878;5.998;2023-07-13T04:09:39;13.02;;;3.75;;
54384;SDS011;40284;52.878;5.998;2023-07-13T04:12:05;11.23;;;3.05;;
54384;SDS011;40284;52.878;5.998;2023-07-13T04:14:31;8.93;;;2.65;;
54384;SDS011;40284;52.878;5.998;2023-07-13T04:16:58;8.60;;;3.03;;
54384;SDS011;40284;52.878;5.998;2023-07-13T04:19:24;8.65;;;2.92;;
54384;SDS011;40284;52.878;5.998;2023-07-13T04:21:50;8.48;;;2.95;;
54384;SDS011;40284;52.878;5.998;2023-07-13T04:24:16;9.98;;;2.78;;
54384;SDS011;40284;52.878;5.998;2023-07-13T04:26:42;7.85;;;2.78;;
54384;SDS011;40284;52.878;5.998;2023-07-13T04:29:08;7.22;;;2.83;;
54384;SDS011;40284;52.878;5.998;2023-07-13T04:31:34;10.15;;;2.40;;
54384;SDS011;40284;52.878;5.998;2023-07-13T04:34:01;13.07;;;2.20;;
54384;SDS011;40284;52.878;5.998;2023-07-13T04:36:28;15.55;;;3.72;;
54384;SDS011;40284;52.878;5.998;2023-07-13T04:38:54;9.50;;;2.72;;
54384;SDS011;40284;52.878;5.998;2023-07-13T04:41:20;7.63;;;2.60;;
54384;SDS011;40284;52.878;5.998;2023-07-13T04:43:47;11.55;;;2.92;;
54384;SDS011;40284;52.878;5.998;2023-07-13T04:46:14;10.32;;;2.67;;
54384;SDS011;40284;52.878;5.998;2023-07-13T04:48:42;6.88;;;2.40;;
54384;SDS011;40284;52.878;5.998;2023-07-13T04:51:08;9.82;;;2.42;;
54384;SDS011;40284;52.878;5.998;2023-07-13T04:53:35;9.00;;;2.72;;
54384;SDS011;40284;52.878;5.998;2023-07-13T04:56:01;8.05;;;2.85;;
54384;SDS011;40284;52.878;5.998;2023-07-13T04:58:27;11.00;;;3.38;;
54384;SDS011;40284;52.878;5.998;2023-07-13T05:00:59;14.90;;;3.95;;
54384;SDS011;40284;52.878;5.998;2023-07-13T05:03:25;13.68;;;3.95;;
54384;SDS011;40284;52.878;5.998;2023-07-13T05:05:55;12.00;;;4.45;;
54384;SDS011;40284;52.878;5.998;2023-07-13T05:08:21;13.18;;;4.88;;
54384;SDS011;40284;52.878;5.998;2023-07-13T05:10:47;13.60;;;3.83;;
54384;SDS011;40284;52.878;5.998;2023-07-13T05:13:13;15.50;;;4.25;;
54384;SDS011;40284;52.878;5.998;2023-07-13T05:15:39;15.13;;;3.97;;
54384;SDS011;40284;52.878;5.998;2023-07-13T05:18:05;14.90;;;4.82;;
54384;SDS011;40284;52.878;5.998;2023-07-13T05:20:31;13.57;;;4.13;;
54384;SDS011;40284;52.878;5.998;2023-07-13T05:22:57;17.20;;;4.88;;
54384;SDS011;40284;52.878;5.998;2023-07-13T05:25:23;12.68;;;3.88;;
54384;SDS011;40284;52.878;5.998;2023-07-13T05:27:49;18.00;;;4.07;;
54384;SDS011;40284;52.878;5.998;2023-07-13T05:30:15;12.55;;;3.90;;
54384;SDS011;40284;52.878;5.998;2023-07-13T05:32:41;10.82;;;3.35;;
54384;SDS011;40284;52.878;5.998;2023-07-13T05:35:07;13.80;;;3.30;;
54384;SDS011;40284;52.878;5.998;2023-07-13T05:37:34;11.20;;;3.17;;
54384;SDS011;40284;52.878;5.998;2023-07-13T05:40:00;14.30;;;3.60;;
54384;SDS011;40284;52.878;5.998;2023-07-13T05:42:26;12.40;;;3.38;;
54384;SDS011;40284;52.878;5.998;2023-07-13T05:44:52;12.23;;;3.55;;
54384;SDS011;40284;52.878;5.998;2023-07-13T05:47:18;12.70;;;3.33;;
54384;SDS011;40284;52.878;5.998;2023-07-13T05:49:44;7.80;;;3.05;;
54384;SDS011;40284;52.878;5.998;2023-07-13T05:52:10;9.77;;;3.40;;
54384;SDS011;40284;52.878;5.998;2023-07-13T05:54:36;15.18;;;4.68;;
54384;SDS011;40284;52.878;5.998;2023-07-13T05:57:02;9.27;;;3.63;;
54384;SDS011;40284;52.878;5.998;2023-07-13T05:59:29;11.05;;;3.80;;
54384;SDS011;40284;52.878;5.998;2023-07-13T06:01:55;13.02;;;4.00;;
54384;SDS011;40284;52.878;5.998;2023-07-13T06:04:21;15.02;;;3.78;;
54384;SDS011;40284;52.878;5.998;2023-07-13T06:06:47;10.63;;;3.17;;
54384;SDS011;40284;52.878;5.998;2023-07-13T06:09:13;14.90;;;4.00;;
54384;SDS011;40284;52.878;5.998;2023-07-13T06:11:39;14.55;;;3.42;;
54384;SDS011;40284;52.878;5.998;2023-07-13T06:14:05;9.27;;;3.20;;
54384;SDS011;40284;52.878;5.998;2023-07-13T06:16:31;11.23;;;3.58;;
54384;SDS011;40284;52.878;5.998;2023-07-13T06:18:57;11.25;;;3.35;;
54384;SDS011;40284;52.878;5.998;2023-07-13T06:21:23;11.77;;;3.38;;
54384;SDS011;40284;52.878;5.998;2023-07-13T06:23:50;9.73;;;3.22;;
54384;SDS011;40284;52.878;5.998;2023-07-13T06:26:18;11.82;;;3.30;;
54384;SDS011;40284;52.878;5.998;2023-07-13T06:28:44;11.80;;;3.58;;
54384;SDS011;40284;52.878;5.998;2023-07-13T06:31:11;14.07;;;3.97;;
54384;SDS011;40284;52.878;5.998;2023-07-13T06:33:37;13.40;;;3.42;;
54384;SDS011;40284;52.878;5.998;2023-07-13T06:36:04;5.90;;;2.50;;
54384;SDS011;40284;52.878;5.998;2023-07-13T06:38:31;10.07;;;3.88;;
54384;SDS011;40284;52.878;5.998;2023-07-13T06:40:57;8.63;;;3.00;;
54384;SDS011;40284;52.878;5.998;2023-07-13T06:43:24;7.78;;;2.97;;
54384;SDS011;40284;52.878;5.998;2023-07-13T06:45:50;8.02;;;2.55;;
54384;SDS011;40284;52.878;5.998;2023-07-13T06:48:17;7.85;;;2.30;;
54384;SDS011;40284;52.878;5.998;2023-07-13T06:50:43;6.95;;;2.03;;
54384;SDS011;40284;52.878;5.998;2023-07-13T06:53:10;5.90;;;2.25;;
54384;SDS011;40284;52.878;5.998;2023-07-13T06:55:36;5.18;;;2.08;;
54384;SDS011;40284;52.878;5.998;2023-07-13T06:58:02;6.15;;;1.58;;
54384;SDS011;40284;52.878;5.998;2023-07-13T07:00:29;6.82;;;1.70;;
54384;SDS011;40284;52.878;5.998;2023-07-13T07:02:55;7.40;;;2.17;;
54384;SDS011;40284;52.878;5.998;2023-07-13T07:05:21;6.05;;;1.83;;
54384;SDS011;40284;52.878;5.998;2023-07-13T07:07:50;5.53;;;1.88;;
54384;SDS011;40284;52.878;5.998;2023-07-13T07:10:17;4.72;;;1.83;;
54384;SDS011;40284;52.878;5.998;2023-07-13T07:12:43;9.60;;;2.50;;
54384;SDS011;40284;52.878;5.998;2023-07-13T07:15:09;12.90;;;2.55;;
54384;SDS011;40284;52.878;5.998;2023-07-13T07:17:35;9.57;;;3.25;;
54384;SDS011;40284;52.878;5.998;2023-07-13T07:20:02;11.55;;;3.17;;
54384;SDS011;40284;52.878;5.998;2023-07-13T07:22:28;13.50;;;3.55;;
54384;SDS011;40284;52.878;5.998;2023-07-13T07:24:55;14.75;;;3.08;;
54384;SDS011;40284;52.878;5.998;2023-07-13T07:27:21;9.02;;;2.97;;
54384;SDS011;40284;52.878;5.998;2023-07-13T07:29:48;9.10;;;3.65;;
54384;SDS011;40284;52.878;5.998;2023-07-13T07:32:14;7.90;;;2.72;;
54384;SDS011;40284;52.878;5.998;2023-07-13T07:34:40;9.38;;;2.25;;
54384;SDS011;40284;52.878;5.998;2023-07-13T07:37:06;12.90;;;2.92;;
54384;SDS011;40284;52.878;5.998;2023-07-13T07:39:32;13.95;;;3.20;;
54384;SDS011;40284;52.878;5.998;2023-07-13T07:41:58;7.10;;;2.70;;
54384;SDS011;40284;52.878;5.998;2023-07-13T07:44:24;9.65;;;2.80;;
54384;SDS011;40284;52.878;5.998;2023-07-13T07:46:52;11.25;;;2.78;;
54384;SDS011;40284;52.878;5.998;2023-07-13T07:49:18;7.35;;;2.22;;
54384;SDS011;40284;52.878;5.998;2023-07-13T07:51:44;9.05;;;2.53;;
54384;SDS011;40284;52.878;5.998;2023-07-13T07:54:10;8.35;;;2.25;;
54384;SDS011;40284;52.878;5.998;2023-07-13T07:56:37;8.77;;;2.13;;
54384;SDS011;40284;52.878;5.998;2023-07-13T07:59:03;7.50;;;2.30;;
54384;SDS011;40284;52.878;5.998;2023-07-13T08:01:29;8.73;;;1.95;;
54384;SDS011;40284;52.878;5.998;2023-07-13T08:03:55;6.78;;;2.40;;
54384;SDS011;40284;52.878;5.998;2023-07-13T08:06:21;5.05;;;1.80;;
54384;SDS011;40284;52.878;5.998;2023-07-13T08:08:48;8.07;;;2.67;;
54384;SDS011;40284;52.878;5.998;2023-07-13T08:11:14;8.80;;;3.10;;
54384;SDS011;40284;52.878;5.998;2023-07-13T08:13:40;12.32;;;3.67;;
54384;SDS011;40284;52.878;5.998;2023-07-13T08:16:06;11.82;;;3.85;;
54384;SDS011;40284;52.878;5.998;2023-07-13T08:18:32;6.68;;;2.33;;
54384;SDS011;40284;52.878;5.998;2023-07-13T08:21:02;6.38;;;2.42;;
54384;SDS011;40284;52.878;5.998;2023-07-13T08:23:28;7.18;;;2.40;;
54384;SDS011;40284;52.878;5.998;2023-07-13T08:25:54;8.52;;;2.05;;
54384;SDS011;40284;52.878;5.998;2023-07-13T08:28:22;6.07;;;2.10;;
54384;SDS011;40284;52.878;5.998;2023-07-13T08:30:48;8.80;;;1.88;;
54384;SDS011;40284;52.878;5.998;2023-07-13T08:33:15;6.93;;;2.33;;
54384;SDS011;40284;52.878;5.998;2023-07-13T08:35:41;6.78;;;1.90;;
54384;SDS011;40284;52.878;5.998;2023-07-13T08:38:07;6.40;;;1.50;;
54384;SDS011;40284;52.878;5.998;2023-07-13T08:40:34;4.65;;;1.63;;
54384;SDS011;40284;52.878;5.998;2023-07-13T08:43:00;5.53;;;1.80;;
54384;SDS011;40284;52.878;5.998;2023-07-13T08:48:13;5.07;;;1.70;;
54384;SDS011;40284;52.878;5.998;2023-07-13T08:50:51;4.95;;;1.70;;
54384;SDS011;40284;52.878;5.998;2023-07-13T08:53:18;2.88;;;1.60;;
54384;SDS011;40284;52.878;5.998;2023-07-13T08:55:44;3.50;;;1.38;;
54384;SDS011;40284;52.878;5.998;2023-07-13T08:58:14;4.00;;;1.63;;
54384;SDS011;40284;52.878;5.998;2023-07-13T09:03:09;5.53;;;1.55;;
54384;SDS011;40284;52.878;5.998;2023-07-13T09:05:38;5.60;;;1.60;;
54384;SDS011;40284;52.878;5.998;2023-07-13T09:13:47;5.03;;;1.90;;
54384;SDS011;40284;52.878;5.998;2023-07-13T09:16:17;3.55;;;1.58;;
54384;SDS011;40284;52.878;5.998;2023-07-13T09:18:44;5.30;;;1.48;;
54384;SDS011;40284;52.878;5.998;2023-07-13T09:21:15;7.80;;;1.52;;
54384;SDS011;40284;52.878;5.998;2023-07-13T09:23:42;4.78;;;1.90;;
54384;SDS011;40284;52.878;5.998;2023-07-13T09:26:18;4.30;;;1.60;;
54384;SDS011;40284;52.878;5.998;2023-07-13T09:28:55;4.38;;;1.10;;
54384;SDS011;40284;52.878;5.998;2023-07-13T09:31:32;4.32;;;1.30;;
54384;SDS011;40284;52.878;5.998;2023-07-13T09:33:59;3.85;;;1.35;;
54384;SDS011;40284;52.878;5.998;2023-07-13T09:36:26;5.80;;;1.65;;
54384;SDS011;40284;52.878;5.998;2023-07-13T09:39:04;3.50;;;1.48;;
54384;SDS011;40284;52.878;5.998;2023-07-13T09:46:35;3.80;;;1.30;;
54384;SDS011;40284;52.878;5.998;2023-07-13T09:49:01;2.28;;;1.13;;
54384;SDS011;40284;52.878;5.998;2023-07-13T09:51:28;3.38;;;1.25;;
54384;SDS011;40284;52.878;5.998;2023-07-13T09:53:54;3.28;;;1.17;;
54384;SDS011;40284;52.878;5.998;2023-07-13T09:56:21;2.25;;;1.15;;
54384;SDS011;40284;52.878;5.998;2023-07-13T09:58:47;6.10;;;1.88;;
54384;SDS011;40284;52.878;5.998;2023-07-13T10:01:13;5.47;;;1.70;;
54384;SDS011;40284;52.878;5.998;2023-07-13T10:03:42;3.92;;;1.50;;
54384;SDS011;40284;52.878;5.998;2023-07-13T10:06:18;5.93;;;1.67;;
54384;SDS011;40284;52.878;5.998;2023-07-13T10:08:45;5.18;;;2.05;;
54384;SDS011;40284;52.878;5.998;2023-07-13T10:13:45;8.32;;;2.08;;
54384;SDS011;40284;52.878;5.998;2023-07-13T10:16:11;6.30;;;2.40;;
54384;SDS011;40284;52.878;5.998;2023-07-13T10:21:11;3.25;;;1.65;;
54384;SDS011;40284;52.878;5.998;2023-07-13T10:23:39;4.38;;;1.38;;
54384;SDS011;40284;52.878;5.998;2023-07-13T10:26:09;6.18;;;1.85;;
54384;SDS011;40284;52.878;5.998;2023-07-13T10:28:40;4.07;;;1.80;;
54384;SDS011;40284;52.878;5.998;2023-07-13T10:31:11;7.88;;;2.40;;
54384;SDS011;40284;52.878;5.998;2023-07-13T10:33:38;4.40;;;1.73;;
54384;SDS011;40284;52.878;5.998;2023-07-13T10:36:14;3.13;;;1.80;;
54384;SDS011;40284;52.878;5.998;2023-07-13T10:38:42;5.40;;;2.00;;
54384;SDS011;40284;52.878;5.998;2023-07-13T10:41:14;6.13;;;1.67;;
54384;SDS011;40284;52.878;5.998;2023-07-13T10:43:42;9.02;;;1.90;;
54384;SDS011;40284;52.878;5.998;2023-07-13T10:46:11;5.32;;;1.90;;
54384;SDS011;40284;52.878;5.998;2023-07-13T10:48:39;5.68;;;2.03;;
54384;SDS011;40284;52.878;5.998;2023-07-13T10:51:06;8.32;;;1.80;;
54384;SDS011;40284;52.878;5.998;2023-07-13T10:53:36;4.65;;;1.77;;
54384;SDS011;40284;52.878;5.998;2023-07-13T10:56:05;5.28;;;1.75;;
54384;SDS011;40284;52.878;5.998;2023-07-13T10:58:40;5.72;;;2.00;;
54384;SDS011;40284;52.878;5.998;2023-07-13T11:03:34;7.05;;;2.92;;
54384;SDS011;40284;52.878;5.998;2023-07-13T11:06:05;4.22;;;1.92;;
54384;SDS011;40284;52.878;5.998;2023-07-13T11:11:02;6.93;;;1.90;;
54384;SDS011;40284;52.878;5.998;2023-07-13T11:13:55;5.47;;;1.80;;
54384;SDS011;40284;52.878;5.998;2023-07-13T11:18:53;6.38;;;1.85;;
54384;SDS011;40284;52.878;5.998;2023-07-13T11:21:34;7.68;;;2.20;;
54384;SDS011;40284;52.878;5.998;2023-07-13T11:24:18;6.63;;;2.00;;
54384;SDS011;40284;52.878;5.998;2023-07-13T11:31:43;5.93;;;1.60;;
54384;SDS011;40284;52.878;5.998;2023-07-13T11:34:18;7.25;;;2.40;;
54384;SDS011;40284;52.878;5.998;2023-07-13T11:36:47;5.65;;;2.75;;
54384;SDS011;40284;52.878;5.998;2023-07-13T11:39:18;5.50;;;1.67;;
54384;SDS011;40284;52.878;5.998;2023-07-13T11:41:50;6.18;;;2.10;;
54384;SDS011;40284;52.878;5.998;2023-07-13T11:44:19;7.93;;;2.03;;
54384;SDS011;40284;52.878;5.998;2023-07-13T11:46:47;5.45;;;2.15;;
54384;SDS011;40284;52.878;5.998;2023-07-13T11:49:16;4.88;;;2.58;;
54384;SDS011;40284;52.878;5.998;2023-07-13T11:51:44;8.05;;;2.58;;
54384;SDS011;40284;52.878;5.998;2023-07-13T11:54:30;5.35;;;1.85;;
54384;SDS011;40284;52.878;5.998;2023-07-13T11:57:10;4.95;;;1.67;;
54384;SDS011;40284;52.878;5.998;2023-07-13T11:59:40;5.43;;;2.28;;
54384;SDS011;40284;52.878;5.998;2023-07-13T12:02:25;3.45;;;1.50;;
54384;SDS011;40284;52.878;5.998;2023-07-13T12:04:52;8.75;;;2.17;;
54384;SDS011;40284;52.878;5.998;2023-07-13T12:07:18;5.93;;;1.83;;
54384;SDS011;40284;52.878;5.998;2023-07-13T12:09:44;6.05;;;2.00;;
54384;SDS011;40284;52.878;5.998;2023-07-13T12:12:11;3.40;;;1.45;;
54384;SDS011;40284;52.878;5.998;2023-07-13T12:14:38;3.60;;;1.55;;
54384;SDS011;40284;52.878;5.998;2023-07-13T12:17:18;5.65;;;1.98;;
54384;SDS011;40284;52.878;5.998;2023-07-13T12:19:44;4.90;;;1.92;;
54384;SDS011;40284;52.878;5.998;2023-07-13T12:22:12;4.43;;;1.92;;
54384;SDS011;40284;52.878;5.998;2023-07-13T12:24:39;5.05;;;1.58;;
54384;SDS011;40284;52.878;5.998;2023-07-13T12:27:06;4.63;;;1.40;;
54384;SDS011;40284;52.878;5.998;2023-07-13T12:29:32;5.72;;;1.60;;
54384;SDS011;40284;52.878;5.998;2023-07-13T12:31:59;6.95;;;1.88;;
54384;SDS011;40284;52.878;5.998;2023-07-13T12:34:26;2.85;;;1.48;;
54384;SDS011;40284;52.878;5.998;2023-07-13T12:36:59;3.97;;;1.45;;
54384;SDS011;40284;52.878;5.998;2023-07-13T12:39:35;4.30;;;1.38;;
54384;SDS011;40284;52.878;5.998;2023-07-13T12:44:49;4.10;;;1.83;;
54384;SDS011;40284;52.878;5.998;2023-07-13T12:47:15;6.10;;;1.73;;
54384;SDS011;40284;52.878;5.998;2023-07-13T12:49:47;5.00;;;1.48;;
54384;SDS011;40284;52.878;5.998;2023-07-13T12:52:15;4.68;;;1.40;;
54384;SDS011;40284;52.878;5.998;2023-07-13T12:54:41;7.40;;;1.90;;
54384;SDS011;40284;52.878;5.998;2023-07-13T12:57:08;5.38;;;1.52;;
54384;SDS011;40284;52.878;5.998;2023-07-13T12:59:39;4.00;;;1.23;;
54384;SDS011;40284;52.878;5.998;2023-07-13T13:02:20;3.50;;;1.50;;
54384;SDS011;40284;52.878;5.998;2023-07-13T13:04:48;5.05;;;1.65;;
54384;SDS011;40284;52.878;5.998;2023-07-13T13:07:14;3.92;;;1.65;;
54384;SDS011;40284;52.878;5.998;2023-07-13T13:09:40;4.47;;;1.10;;
54384;SDS011;40284;52.878;5.998;2023-07-13T13:12:07;3.92;;;1.50;;
54384;SDS011;40284;52.878;5.998;2023-07-13T13:14:33;4.78;;;1.33;;
54384;SDS011;40284;52.878;5.998;2023-07-13T13:17:01;9.88;;;2.00;;
54384;SDS011;40284;52.878;5.998;2023-07-13T13:19:28;6.68;;;1.67;;
54384;SDS011;40284;52.878;5.998;2023-07-13T13:21:56;2.53;;;1.30;;
54384;SDS011;40284;52.878;5.998;2023-07-13T13:24:23;4.00;;;1.48;;
54384;SDS011;40284;52.878;5.998;2023-07-13T13:26:50;3.88;;;1.40;;
54384;SDS011;40284;52.878;5.998;2023-07-13T13:29:18;5.68;;;1.60;;
54384;SDS011;40284;52.878;5.998;2023-07-13T13:31:45;5.72;;;2.05;;
54384;SDS011;40284;52.878;5.998;2023-07-13T13:34:12;8.25;;;1.80;;
54384;SDS011;40284;52.878;5.998;2023-07-13T13:36:39;4.85;;;1.50;;
54384;SDS011;40284;52.878;5.998;2023-07-13T13:39:25;6.75;;;1.75;;
54384;SDS011;40284;52.878;5.998;2023-07-13T13:41:51;5.03;;;1.90;;
54384;SDS011;40284;52.878;5.998;2023-07-13T13:44:18;7.03;;;2.15;;
54384;SDS011;40284;52.878;5.998;2023-07-13T13:46:45;3.15;;;1.65;;
54384;SDS011;40284;52.878;5.998;2023-07-13T13:49:19;6.38;;;2.47;;
54384;SDS011;40284;52.878;5.998;2023-07-13T13:51:46;6.43;;;1.77;;
54384;SDS011;40284;52.878;5.998;2023-07-13T13:54:13;4.80;;;1.70;;
54384;SDS011;40284;52.878;5.998;2023-07-13T13:56:45;8.88;;;2.28;;
54384;SDS011;40284;52.878;5.998;2023-07-13T13:59:12;5.18;;;1.92;;
54384;SDS011;40284;52.878;5.998;2023-07-13T14:01:38;5.07;;;1.50;;
54384;SDS011;40284;52.878;5.998;2023-07-13T14:04:05;6.30;;;2.20;;
54384;SDS011;40284;52.878;5.998;2023-07-13T14:06:32;5.47;;;2.20;;
54384;SDS011;40284;52.878;5.998;2023-07-13T14:09:01;4.75;;;2.17;;
54384;SDS011;40284;52.878;5.998;2023-07-13T14:11:27;7.60;;;2.40;;
54384;SDS011;40284;52.878;5.998;2023-07-13T14:13:55;7.68;;;2.65;;
54384;SDS011;40284;52.878;5.998;2023-07-13T14:16:22;12.63;;;2.83;;
54384;SDS011;40284;52.878;5.998;2023-07-13T14:18:52;7.05;;;2.28;;
54384;SDS011;40284;52.878;5.998;2023-07-13T14:21:20;8.38;;;2.30;;
54384;SDS011;40284;52.878;5.998;2023-07-13T14:23:47;5.72;;;1.95;;
54384;SDS011;40284;52.878;5.998;2023-07-13T14:26:17;3.90;;;1.63;;
54384;SDS011;40284;52.878;5.998;2023-07-13T14:28:46;6.60;;;1.83;;
54384;SDS011;40284;52.878;5.998;2023-07-13T14:31:13;6.35;;;2.10;;
54384;SDS011;40284;52.878;5.998;2023-07-13T14:33:40;4.68;;;2.00;;
54384;SDS011;40284;52.878;5.998;2023-07-13T14:36:48;6.78;;;2.40;;
54384;SDS011;40284;52.878;5.998;2023-07-13T14:39:00;4.65;;;1.80;;
54384;SDS011;40284;52.878;5.998;2023-07-13T14:41:26;5.28;;;1.92;;
54384;SDS011;40284;52.878;5.998;2023-07-13T14:43:53;6.45;;;2.38;;
54384;SDS011;40284;52.878;5.998;2023-07-13T14:46:29;7.82;;;2.30;;
54384;SDS011;40284;52.878;5.998;2023-07-13T14:48:59;6.07;;;1.60;;
54384;SDS011;40284;52.878;5.998;2023-07-13T14:51:26;8.38;;;2.60;;
54384;SDS011;40284;52.878;5.998;2023-07-13T14:53:52;4.65;;;1.95;;
54384;SDS011;40284;52.878;5.998;2023-07-13T14:56:18;9.25;;;2.67;;
54384;SDS011;40284;52.878;5.998;2023-07-13T14:58:44;6.75;;;2.38;;
54384;SDS011;40284;52.878;5.998;2023-07-13T15:01:12;9.77;;;2.80;;
54384;SDS011;40284;52.878;5.998;2023-07-13T15:03:41;5.85;;;1.98;;
54384;SDS011;40284;52.878;5.998;2023-07-13T15:06:10;5.60;;;2.08;;
54384;SDS011;40284;52.878;5.998;2023-07-13T15:08:36;6.15;;;2.22;;
54384;SDS011;40284;52.878;5.998;2023-07-13T15:11:03;7.63;;;2.60;;
54384;SDS011;40284;52.878;5.998;2023-07-13T15:13:30;7.95;;;2.50;;
54384;SDS011;40284;52.878;5.998;2023-07-13T15:15:56;6.10;;;2.05;;
54384;SDS011;40284;52.878;5.998;2023-07-13T15:18:22;4.45;;;2.08;;
54384;SDS011;40284;52.878;5.998;2023-07-13T15:20:50;8.65;;;2.05;;
54384;SDS011;40284;52.878;5.998;2023-07-13T15:23:17;5.88;;;2.30;;